createdAt,value
2022-12-01T00:01:19.689Z,11.48
2022-12-01T00:03:46.800Z,10.52
2022-12-01T00:06:16.417Z,11.63
2022-12-01T00:09:03.152Z,10.88
2022-12-01T00:11:30.248Z,11.18
2022-12-01T00:13:57.357Z,12.48
2022-12-01T00:16:27.264Z,11.80
2022-12-01T00:18:54.082Z,12.20
2022-12-01T00:21:22.988Z,12.90
2022-12-01T00:23:52.574Z,12.25
2022-12-01T00:26:20.962Z,12.77
2022-12-01T00:28:53.347Z,12.07
2022-12-01T00:31:20.977Z,12.73
2022-12-01T00:33:47.748Z,11.90
2022-12-01T00:36:15.215Z,12.50
2022-12-01T00:38:42.006Z,13.07
2022-12-01T00:41:09.073Z,12.65
2022-12-01T00:43:36.076Z,11.80
2022-12-01T00:46:03.632Z,12.70
2022-12-01T00:48:30.762Z,12.52
2022-12-01T00:50:57.802Z,11.60
2022-12-01T00:53:24.811Z,12.52
2022-12-01T00:55:54.073Z,12.00
2022-12-01T00:58:21.450Z,11.38
2022-12-01T01:00:48.567Z,12.00
2022-12-01T01:03:15.521Z,11.00
2022-12-01T01:05:43.736Z,11.18
2022-12-01T01:08:12.826Z,12.30
2022-12-01T01:10:42.054Z,11.02
2022-12-01T01:13:09.758Z,9.73
2022-12-01T01:15:37.472Z,9.80
2022-12-01T01:18:05.008Z,10.98
2022-12-01T01:20:33.121Z,9.93
2022-12-01T01:22:59.830Z,10.52
2022-12-01T01:25:27.013Z,10.13
2022-12-01T01:27:54.186Z,9.65
2022-12-01T01:30:21.710Z,9.43
2022-12-01T01:32:48.587Z,11.73
2022-12-01T01:35:15.695Z,10.05
2022-12-01T01:37:42.471Z,8.75
2022-12-01T01:40:11.563Z,10.13
2022-12-01T01:42:43.068Z,8.15
2022-12-01T01:45:19.410Z,8.85
2022-12-01T01:47:47.182Z,8.63
2022-12-01T01:50:16.535Z,10.20
2022-12-01T01:52:46.525Z,8.13
2022-12-01T01:55:14.677Z,8.18
2022-12-01T01:57:43.705Z,7.43
2022-12-01T02:00:17.060Z,7.20
2022-12-01T02:02:46.480Z,10.25
2022-12-01T02:05:22.651Z,8.77
2022-12-01T02:07:51.830Z,9.15
2022-12-01T02:10:22.692Z,9.00
2022-12-01T02:13:17.730Z,8.55
2022-12-01T02:16:09.745Z,8.63
2022-12-01T02:18:42.515Z,7.70
2022-12-01T02:21:24.662Z,9.90
2022-12-01T02:24:06.566Z,9.10
2022-12-01T02:26:46.781Z,9.60
2022-12-01T02:29:58.448Z,8.50
2022-12-01T02:32:47.362Z,9.88
2022-12-01T02:35:34.395Z,8.75
2022-12-01T02:38:10.549Z,9.85
2022-12-01T02:40:53.053Z,9.30
2022-12-01T02:43:43.051Z,9.32
2022-12-01T02:46:27.127Z,10.43
2022-12-01T02:48:59.809Z,9.20
2022-12-01T02:51:30.650Z,10.35
2022-12-01T02:54:02.937Z,9.10
2022-12-01T02:56:29.898Z,8.45
2022-12-01T02:58:57.189Z,9.52
2022-12-01T03:01:45.051Z,8.85
2022-12-01T03:04:47.579Z,9.38
2022-12-01T03:07:39.028Z,9.73
2022-12-01T03:10:15.113Z,8.93
2022-12-01T03:13:16.310Z,10.05
2022-12-01T03:16:01.016Z,9.35
2022-12-01T03:18:38.926Z,8.75
2022-12-01T03:21:14.054Z,9.98
2022-12-01T03:23:47.847Z,10.07
2022-12-01T03:26:21.870Z,10.13
2022-12-01T03:29:00.347Z,10.35
2022-12-01T03:31:33.005Z,8.60
2022-12-01T03:34:09.745Z,9.38
2022-12-01T03:36:45.447Z,9.98
2022-12-01T03:39:17.127Z,10.07
2022-12-01T03:41:51.457Z,8.70
2022-12-01T03:44:25.565Z,8.98
2022-12-01T03:47:10.817Z,9.07
2022-12-01T03:49:39.414Z,8.98
2022-12-01T03:52:24.726Z,8.55
2022-12-01T03:55:01.267Z,8.73
2022-12-01T03:58:01.691Z,9.40
2022-12-01T04:00:31.229Z,9.32
2022-12-01T04:03:00.472Z,9.43
2022-12-01T04:05:27.598Z,9.23
2022-12-01T04:07:55.023Z,9.43
2022-12-01T04:10:22.086Z,9.27
2022-12-01T04:12:49.138Z,10.32
2022-12-01T04:15:16.706Z,8.80
2022-12-01T04:17:45.309Z,10.15
2022-12-01T04:20:16.463Z,10.23
2022-12-01T04:22:43.859Z,8.82
2022-12-01T04:25:11.315Z,9.10
2022-12-01T04:27:38.757Z,10.10
2022-12-01T04:30:07.250Z,7.97
2022-12-01T04:32:42.658Z,9.52
2022-12-01T04:35:11.724Z,8.98
2022-12-01T04:37:39.947Z,9.50
2022-12-01T04:40:07.682Z,8.68
2022-12-01T04:42:34.846Z,9.38
2022-12-01T04:45:01.735Z,9.40
2022-12-01T04:47:28.856Z,9.43
2022-12-01T04:49:55.594Z,8.95
2022-12-01T04:52:22.727Z,8.38
2022-12-01T04:54:49.446Z,8.55
2022-12-01T04:57:16.464Z,9.32
2022-12-01T04:59:43.178Z,8.48
2022-12-01T05:02:10.260Z,9.57
2022-12-01T05:04:38.810Z,9.10
2022-12-01T05:07:09.113Z,8.07
2022-12-01T05:09:36.025Z,8.95
2022-12-01T05:12:03.095Z,9.25
2022-12-01T05:14:29.859Z,9.10
2022-12-01T05:17:01.019Z,8.85
2022-12-01T05:19:46.454Z,10.38
2022-12-01T05:22:13.745Z,8.73
2022-12-01T05:24:40.904Z,8.63
2022-12-01T05:27:08.984Z,9.35
2022-12-01T05:29:35.939Z,9.70
2022-12-01T05:32:03.816Z,11.23
2022-12-01T05:34:30.778Z,10.00
2022-12-01T05:36:57.833Z,10.90
2022-12-01T05:39:24.567Z,9.20
2022-12-01T05:41:54.436Z,10.73
2022-12-01T05:44:21.230Z,9.70
2022-12-01T05:46:48.263Z,9.07
2022-12-01T05:49:15.150Z,8.80
2022-12-01T05:51:44.780Z,8.88
2022-12-01T05:54:11.530Z,8.75
2022-12-01T05:56:38.574Z,10.43
2022-12-01T05:59:05.398Z,10.15
2022-12-01T06:01:32.512Z,12.38
2022-12-01T06:03:59.432Z,11.30
2022-12-01T06:06:26.515Z,10.13
2022-12-01T06:08:53.339Z,12.20
2022-12-01T06:11:20.374Z,11.00
2022-12-01T06:13:47.103Z,10.95
2022-12-01T06:16:14.258Z,11.75
2022-12-01T06:18:41.132Z,11.65
2022-12-01T06:21:11.040Z,11.60
2022-12-01T06:23:37.984Z,10.02
2022-12-01T06:26:05.375Z,13.25
2022-12-01T06:28:32.221Z,14.32
2022-12-01T06:31:03.138Z,12.43
2022-12-01T06:33:31.906Z,14.05
2022-12-01T06:36:00.963Z,13.63
2022-12-01T06:38:31.426Z,13.82
2022-12-01T06:40:58.920Z,13.30
2022-12-01T06:43:26.034Z,15.05
2022-12-01T06:45:57.781Z,14.23
2022-12-01T06:48:27.828Z,15.20
2022-12-01T06:50:57.979Z,15.43
2022-12-01T06:53:25.867Z,14.95
2022-12-01T06:55:53.445Z,15.55
2022-12-01T06:58:20.364Z,14.90
2022-12-01T07:00:51.910Z,17.25
2022-12-01T07:03:19.127Z,15.00
2022-12-01T07:05:55.296Z,15.25
2022-12-01T07:08:22.044Z,14.38
2022-12-01T07:11:00.036Z,15.60
2022-12-01T07:13:33.380Z,14.70
2022-12-01T07:16:03.341Z,14.70
2022-12-01T07:18:30.838Z,14.68
2022-12-01T07:21:01.887Z,18.13
2022-12-01T07:23:29.131Z,16.73
2022-12-01T07:26:07.030Z,17.17
2022-12-01T07:28:34.247Z,16.73
2022-12-01T07:31:06.100Z,17.60
2022-12-01T07:33:32.946Z,16.45
2022-12-01T07:36:00.345Z,18.05
2022-12-01T07:38:31.776Z,19.02
2022-12-01T07:41:16.396Z,16.58
2022-12-01T07:43:43.511Z,18.15
2022-12-01T07:46:23.047Z,16.33
2022-12-01T07:48:51.039Z,17.17
2022-12-01T07:51:18.337Z,15.15
2022-12-01T07:53:47.270Z,14.88
2022-12-01T07:56:14.935Z,14.38
2022-12-01T07:58:42.654Z,14.40
2022-12-01T08:01:12.550Z,14.40
2022-12-01T08:03:40.110Z,15.20
2022-12-01T08:06:08.401Z,15.27
2022-12-01T08:08:39.077Z,15.63
2022-12-01T08:11:14.907Z,13.85
2022-12-01T08:13:42.670Z,13.63
2022-12-01T08:16:14.842Z,16.23
2022-12-01T08:18:42.671Z,14.15
2022-12-01T08:21:14.446Z,14.05
2022-12-01T08:23:42.272Z,12.85
2022-12-01T08:26:13.146Z,14.05
2022-12-01T08:28:40.465Z,14.70
2022-12-01T08:31:09.957Z,13.40
2022-12-01T08:33:36.867Z,12.93
2022-12-01T08:36:05.359Z,12.85
2022-12-01T08:38:32.576Z,12.85
2022-12-01T08:41:04.999Z,12.00
2022-12-01T08:43:56.570Z,14.38
2022-12-01T08:46:18.881Z,12.05
2022-12-01T08:48:46.062Z,12.70
2022-12-01T08:51:15.770Z,12.38
2022-12-01T08:53:45.857Z,12.52
2022-12-01T08:56:24.496Z,12.32
2022-12-01T08:58:51.799Z,13.57
2022-12-01T09:01:19.670Z,14.00
2022-12-01T09:03:46.641Z,14.32
2022-12-01T09:06:17.056Z,14.23
2022-12-01T09:08:44.459Z,14.50
2022-12-01T09:11:17.428Z,14.98
2022-12-01T09:13:48.593Z,14.30
2022-12-01T09:16:19.408Z,14.25
2022-12-01T09:18:47.602Z,16.65
2022-12-01T09:21:30.393Z,14.13
2022-12-01T09:23:57.658Z,14.15
2022-12-01T09:26:25.902Z,13.60
2022-12-01T09:28:55.170Z,13.27
2022-12-01T09:31:25.582Z,13.05
2022-12-01T09:33:56.828Z,12.88
2022-12-01T09:36:24.513Z,12.30
2022-12-01T09:38:51.488Z,12.77
2022-12-01T09:41:24.012Z,12.48
2022-12-01T09:44:34.003Z,13.48
2022-12-01T09:47:19.184Z,13.10
2022-12-01T09:50:00.231Z,12.98
2022-12-01T09:52:32.113Z,12.98
2022-12-01T09:55:00.523Z,11.57
2022-12-01T09:57:36.652Z,13.32
2022-12-01T10:00:25.411Z,12.57
2022-12-01T10:02:59.081Z,13.45
2022-12-01T10:05:34.232Z,13.80
2022-12-01T10:08:05.471Z,13.00
2022-12-01T10:10:43.331Z,12.43
2022-12-01T10:13:18.209Z,12.38
2022-12-01T10:15:47.862Z,10.93
2022-12-01T10:18:36.498Z,11.85
2022-12-01T10:21:21.784Z,11.60
2022-12-01T10:24:00.933Z,9.65
2022-12-01T10:26:51.550Z,10.88
2022-12-01T10:29:48.467Z,10.38
2022-12-01T10:32:38.820Z,11.07
2022-12-01T10:35:06.080Z,10.77
2022-12-01T10:37:32.978Z,10.63
2022-12-01T10:40:00.122Z,11.65
2022-12-01T10:42:46.975Z,10.57
2022-12-01T10:45:16.637Z,10.95
2022-12-01T10:48:15.824Z,11.63
2022-12-01T10:50:45.424Z,10.93
2022-12-01T10:53:24.741Z,10.20
2022-12-01T10:56:10.872Z,10.30
2022-12-01T10:58:46.390Z,11.10
2022-12-01T11:01:37.025Z,10.75
2022-12-01T11:04:46.493Z,10.65
2022-12-01T11:07:25.772Z,10.00
2022-12-01T11:10:04.449Z,9.35
2022-12-01T11:12:32.065Z,10.98
2022-12-01T11:14:59.399Z,11.07
2022-12-01T11:17:42.571Z,10.13
2022-12-01T11:20:30.657Z,10.13
2022-12-01T11:23:18.236Z,9.93
2022-12-01T11:26:02.229Z,10.15
2022-12-01T11:28:33.570Z,10.15
2022-12-01T11:31:11.354Z,10.75
2022-12-01T11:33:52.219Z,11.88
2022-12-01T11:36:45.493Z,11.02
2022-12-01T11:39:34.170Z,11.10
2022-12-01T11:42:07.225Z,9.77
2022-12-01T11:44:50.793Z,10.43
2022-12-01T11:47:24.105Z,9.82
2022-12-01T11:50:00.944Z,11.00
2022-12-01T11:52:34.726Z,9.15
2022-12-01T11:55:20.427Z,9.63
2022-12-01T11:57:51.120Z,12.50
2022-12-01T12:00:22.676Z,9.98
2022-12-01T12:02:55.253Z,9.75
2022-12-01T12:05:49.179Z,9.70
2022-12-01T12:08:22.942Z,9.60
2022-12-01T12:10:54.694Z,9.75
2022-12-01T12:13:42.386Z,9.38
2022-12-01T12:16:47.932Z,8.70
2022-12-01T12:19:14.708Z,8.48
2022-12-01T12:21:53.570Z,9.82
2022-12-01T12:24:32.402Z,9.77
2022-12-01T12:27:32.895Z,9.65
2022-12-01T12:30:22.250Z,10.73
2022-12-01T12:33:27.239Z,9.15
2022-12-01T12:39:12.140Z,8.95
2022-12-01T12:41:55.118Z,8.63
2022-12-01T12:44:35.458Z,8.85
2022-12-01T12:47:21.874Z,9.02
2022-12-01T12:50:26.475Z,8.90
2022-12-01T12:52:59.497Z,8.38
2022-12-01T12:55:32.486Z,8.82
2022-12-01T12:58:11.412Z,9.10
2022-12-01T13:00:43.251Z,7.90
2022-12-01T13:03:19.420Z,8.50
2022-12-01T13:06:08.965Z,8.13
2022-12-01T13:08:45.943Z,7.95
2022-12-01T13:11:18.061Z,7.93
2022-12-01T13:14:06.570Z,8.13
2022-12-01T13:16:45.266Z,9.35
2022-12-01T13:19:28.966Z,7.93
2022-12-01T13:21:57.390Z,7.97
2022-12-01T13:24:29.111Z,6.55
2022-12-01T13:27:21.105Z,5.75
2022-12-01T13:29:51.104Z,5.70
2022-12-01T13:32:32.538Z,4.63
2022-12-01T13:35:01.991Z,5.47
2022-12-01T13:37:32.836Z,5.28
2022-12-01T13:40:20.368Z,5.72
2022-12-01T13:43:05.532Z,5.45
2022-12-01T13:45:37.435Z,6.32
2022-12-01T13:48:25.198Z,5.95
2022-12-01T13:50:57.912Z,6.22
2022-12-01T13:53:29.874Z,5.78
2022-12-01T13:56:03.847Z,6.20
2022-12-01T13:58:33.660Z,5.93
2022-12-01T14:01:23.322Z,6.20
2022-12-01T14:03:56.993Z,6.32
2022-12-01T14:06:36.203Z,6.80
2022-12-01T14:09:41.468Z,6.78
2022-12-01T14:12:15.943Z,6.80
2022-12-01T14:15:03.065Z,6.60
2022-12-01T14:17:32.756Z,5.90
2022-12-01T14:20:21.614Z,6.65
2022-12-01T14:23:03.994Z,7.03
2022-12-01T14:25:31.755Z,7.25
2022-12-01T14:28:01.486Z,6.30
2022-12-01T14:30:46.563Z,6.68
2022-12-01T14:33:51.223Z,6.50
2022-12-01T14:36:24.324Z,5.88
2022-12-01T14:38:54.869Z,6.57
2022-12-01T14:41:25.633Z,6.95
2022-12-01T14:44:03.629Z,8.52
2022-12-01T14:46:56.510Z,9.50
2022-12-01T14:49:32.855Z,8.32
2022-12-01T14:52:06.781Z,7.03
2022-12-01T14:54:42.831Z,6.78
2022-12-01T14:57:16.710Z,7.30
2022-12-01T14:59:44.733Z,7.07
2022-12-01T15:02:12.583Z,7.63
2022-12-01T15:05:15.754Z,7.50
2022-12-01T15:07:45.886Z,7.60
2022-12-01T15:10:22.696Z,8.93
2022-12-01T15:12:51.781Z,9.85
2022-12-01T15:15:24.163Z,9.48
2022-12-01T15:17:53.160Z,8.20
2022-12-01T15:20:28.631Z,8.57
2022-12-01T15:22:56.836Z,7.25
2022-12-01T15:25:25.220Z,7.95
2022-12-01T15:28:13.035Z,8.75
2022-12-01T15:30:41.853Z,8.38
2022-12-01T15:33:26.940Z,8.15
2022-12-01T15:35:55.701Z,9.20
2022-12-01T15:38:27.259Z,8.18
2022-12-01T15:43:46.446Z,6.93
2022-12-01T15:46:19.334Z,7.97
2022-12-01T15:48:46.507Z,7.47
2022-12-01T15:51:27.727Z,7.15
2022-12-01T15:53:59.765Z,7.35
2022-12-01T15:56:31.270Z,6.65
2022-12-01T15:59:12.723Z,8.68
2022-12-01T16:01:42.132Z,7.57
2022-12-01T16:04:29.450Z,7.00
2022-12-01T16:07:01.197Z,8.82
2022-12-01T16:09:34.258Z,8.73
2022-12-01T16:12:19.066Z,8.57
2022-12-01T16:15:01.266Z,7.38
2022-12-01T16:17:40.758Z,7.40
2022-12-01T16:20:19.114Z,7.40
2022-12-01T16:22:48.977Z,8.35
2022-12-01T16:25:29.661Z,8.82
2022-12-01T16:27:57.690Z,7.32
2022-12-01T16:30:30.269Z,8.18
2022-12-01T16:33:18.702Z,8.20
2022-12-01T16:35:46.198Z,8.43
2022-12-01T16:38:22.379Z,9.25
2022-12-01T16:41:16.565Z,9.05
2022-12-01T16:43:54.515Z,9.00
2022-12-01T16:46:30.750Z,9.15
2022-12-01T16:48:57.586Z,9.82
2022-12-01T16:51:30.106Z,11.05
2022-12-01T16:54:10.166Z,10.13
2022-12-01T16:56:37.169Z,10.27
2022-12-01T16:59:04.979Z,10.98
2022-12-01T17:01:32.105Z,9.60
2022-12-01T17:04:07.199Z,9.80
2022-12-01T17:06:35.741Z,11.77
2022-12-01T17:09:02.498Z,9.75
2022-12-01T17:11:29.578Z,11.30
2022-12-01T17:13:56.322Z,9.50
2022-12-01T17:16:23.453Z,9.80
2022-12-01T17:18:50.334Z,10.18
2022-12-01T17:21:17.417Z,10.85
2022-12-01T17:23:44.221Z,10.77
2022-12-01T17:26:14.399Z,10.68
2022-12-01T17:28:41.353Z,11.55
2022-12-01T17:31:09.282Z,12.52
2022-12-01T17:33:36.539Z,13.90
2022-12-01T17:36:10.091Z,12.25
2022-12-01T17:38:41.610Z,13.52
2022-12-01T17:41:11.460Z,13.75
2022-12-01T17:43:39.302Z,14.43
2022-12-01T17:46:08.825Z,15.02
2022-12-01T17:48:40.723Z,15.40
2022-12-01T17:51:08.987Z,14.38
2022-12-01T17:53:36.511Z,15.88
2022-12-01T17:56:09.962Z,16.25
2022-12-01T17:58:40.301Z,17.92
2022-12-01T18:01:15.165Z,14.40
2022-12-01T18:03:42.368Z,15.95
2022-12-01T18:06:12.191Z,15.80
2022-12-01T18:08:39.835Z,15.52
2022-12-01T18:11:10.075Z,17.33
2022-12-01T18:13:41.926Z,16.10
2022-12-01T18:16:12.094Z,17.55
2022-12-01T18:18:39.406Z,16.50
2022-12-01T18:21:14.745Z,17.45
2022-12-01T18:23:41.796Z,17.27
2022-12-01T18:26:15.983Z,17.80
2022-12-01T18:28:43.901Z,17.75
2022-12-01T18:31:13.946Z,20.50
2022-12-01T18:33:42.788Z,18.40
2022-12-01T18:36:13.352Z,18.30
2022-12-01T18:38:40.692Z,16.73
2022-12-01T18:41:10.266Z,18.63
2022-12-01T18:43:37.341Z,18.83
2022-12-01T18:46:07.635Z,18.27
2022-12-01T18:48:35.165Z,19.60
2022-12-01T18:51:04.838Z,19.35
2022-12-01T18:53:32.546Z,19.77
2022-12-01T18:56:04.158Z,19.40
2022-12-01T18:58:32.068Z,18.15
2022-12-01T19:01:00.173Z,19.67
2022-12-01T19:03:31.320Z,20.75
2022-12-01T19:05:59.347Z,22.88
2022-12-01T19:08:26.123Z,21.42
2022-12-01T19:11:00.613Z,22.50
2022-12-01T19:13:28.222Z,21.50
2022-12-01T19:16:07.179Z,22.90
2022-12-01T19:18:36.136Z,21.42
2022-12-01T19:21:04.845Z,22.55
2022-12-01T19:23:32.047Z,22.45
2022-12-01T19:26:05.082Z,23.70
2022-12-01T19:28:35.720Z,22.52
2022-12-01T19:31:11.271Z,21.60
2022-12-01T19:33:38.729Z,21.05
2022-12-01T19:36:12.076Z,22.42
2022-12-01T19:38:39.157Z,21.63
2022-12-01T19:41:08.116Z,23.52
2022-12-01T19:43:35.971Z,22.73
2022-12-01T19:46:17.121Z,22.98
2022-12-01T19:48:44.322Z,25.27
2022-12-01T19:51:19.320Z,25.48
2022-12-01T19:53:46.892Z,26.25
2022-12-01T19:56:14.209Z,26.15
2022-12-01T19:58:41.010Z,25.02
2022-12-01T20:01:14.502Z,27.83
2022-12-01T20:03:42.244Z,27.02
2022-12-01T20:06:20.167Z,27.08
2022-12-01T20:08:47.035Z,27.27
2022-12-01T20:11:15.034Z,27.60
2022-12-01T20:13:43.780Z,28.17
2022-12-01T20:16:17.329Z,24.98
2022-12-01T20:18:44.936Z,29.02
2022-12-01T20:21:19.415Z,26.50
2022-12-01T20:23:51.917Z,27.45
2022-12-01T20:26:19.915Z,27.08
2022-12-01T20:28:49.797Z,26.33
2022-12-01T20:31:24.060Z,27.60
2022-12-01T20:33:52.718Z,27.85
2022-12-01T20:36:20.278Z,26.73
2022-12-01T20:38:47.402Z,26.83
2022-12-01T20:41:14.566Z,28.77
2022-12-01T20:43:41.392Z,27.05
2022-12-01T20:46:10.733Z,27.80
2022-12-01T20:48:39.037Z,26.08
2022-12-01T20:51:08.018Z,24.70
2022-12-01T20:53:35.982Z,26.40
2022-12-01T20:56:08.862Z,24.58
2022-12-01T20:58:38.002Z,25.08
2022-12-01T21:01:17.066Z,26.40
2022-12-01T21:03:45.521Z,24.95
2022-12-01T21:06:14.762Z,26.15
2022-12-01T21:08:45.014Z,25.35
2022-12-01T21:11:51.693Z,25.75
2022-12-01T21:14:27.920Z,25.48
2022-12-01T21:16:59.018Z,25.48
2022-12-01T21:19:37.182Z,27.95
2022-12-01T21:22:11.752Z,25.55
2022-12-01T21:24:43.758Z,27.08
2022-12-01T21:27:16.219Z,28.10
2022-12-01T21:29:48.557Z,27.75
2022-12-01T21:32:18.650Z,27.33
2022-12-01T21:34:47.273Z,25.45
2022-12-01T21:37:24.278Z,26.40
2022-12-01T21:39:53.209Z,25.60
2022-12-01T21:42:23.180Z,26.15
2022-12-01T21:44:50.736Z,27.80
2022-12-01T21:47:21.827Z,27.10
2022-12-01T21:49:52.307Z,29.00
2022-12-01T21:52:25.161Z,25.92
2022-12-01T21:54:52.079Z,26.88
2022-12-01T21:57:31.451Z,27.70
2022-12-01T22:00:23.071Z,27.23
2022-12-01T22:02:52.601Z,24.13
2022-12-01T22:05:42.243Z,25.75
2022-12-01T22:08:14.087Z,25.50
2022-12-01T22:10:56.255Z,26.60
2022-12-01T22:13:33.105Z,28.05
2022-12-01T22:16:00.248Z,25.77
2022-12-01T22:18:35.834Z,25.42
2022-12-01T22:21:22.493Z,25.00
2022-12-01T22:24:08.065Z,25.88
2022-12-01T22:26:43.064Z,26.95
2022-12-01T22:29:34.158Z,28.13
2022-12-01T22:32:12.887Z,27.95
2022-12-01T22:34:43.923Z,27.70
2022-12-01T22:37:40.558Z,31.88
2022-12-01T22:40:26.326Z,29.27
2022-12-01T22:42:53.097Z,30.08
2022-12-01T22:45:24.451Z,27.85
2022-12-01T22:47:54.692Z,29.67
2022-12-01T22:50:28.503Z,30.23
2022-12-01T22:53:16.995Z,29.80
2022-12-01T22:55:44.256Z,28.60
2022-12-01T22:58:34.015Z,32.30
2022-12-01T23:01:16.937Z,31.08
2022-12-01T23:03:43.911Z,28.35
2022-12-01T23:06:53.951Z,29.38
2022-12-01T23:09:22.599Z,27.85
2022-12-01T23:11:56.441Z,28.58
2022-12-01T23:14:23.961Z,29.05
2022-12-01T23:17:05.724Z,27.90
2022-12-01T23:19:34.483Z,24.17
2022-12-01T23:22:02.074Z,23.13
2022-12-01T23:24:33.680Z,23.92
2022-12-01T23:27:04.867Z,24.20
2022-12-01T23:29:32.488Z,22.08
2022-12-01T23:31:59.671Z,21.42
2022-12-01T23:34:26.494Z,22.90
2022-12-01T23:36:53.652Z,22.33
2022-12-01T23:39:31.879Z,22.42
2022-12-01T23:41:59.521Z,25.42
2022-12-01T23:44:29.265Z,25.85
2022-12-01T23:46:58.454Z,26.02
2022-12-01T23:49:31.970Z,28.52
2022-12-01T23:52:01.015Z,28.70
2022-12-01T23:54:31.977Z,27.90
2022-12-01T23:57:02.873Z,29.08
2022-12-01T23:59:31.859Z,29.88
